Time;durP1;ratioP1;P1;durP2;ratioP2;P2;SDS_P1;SDS_P2;PMS_P1;PMS_P2;Temp;Humidity;BMP_temperature;BMP_pressure;BME280_temperature;BME280_humidity;BME280_pressure;Samples;Min_cycle;Max_cycle;Signal;HPM_P1;HPM_P2
2021/08/03 00:01:45;;;;;;;3.73;2.13;;;16.10;99.90;;;;;;5055067;28;20175;-54
2021/08/03 00:04:13;;;;;;;4.10;3.07;;;16.10;99.90;;;;;;5055235;28;20830;-51
2021/08/03 00:06:52;;;;;;;3.00;2.80;;;16.00;99.90;;;;;;5055326;28;20168;-53
2021/08/03 00:09:18;;;;;;;2.83;2.40;;;15.90;99.90;;;;;;5054974;28;20218;-57
2021/08/03 00:11:45;;;;;;;2.30;2.10;;;15.80;99.90;;;;;;5054803;28;20227;-51
2021/08/03 00:14:11;;;;;;;5.53;2.57;;;15.80;99.90;;;;;;5055164;28;20253;-52
2021/08/03 00:16:40;;;;;;;2.40;2.20;;;15.80;99.90;;;;;;5054566;28;20167;-54
2021/08/03 00:19:06;;;;;;;3.20;2.60;;;15.90;99.90;;;;;;5055312;28;20198;-52
2021/08/03 00:21:33;;;;;;;3.00;2.70;;;15.90;99.90;;;;;;5054874;28;20179;-62
2021/08/03 00:23:59;;;;;;;2.47;2.27;;;16.00;99.90;;;;;;5054028;28;20230;-55
2021/08/03 00:26:25;;;;;;;2.90;2.60;;;16.00;99.90;;;;;;5054744;28;20183;-62
2021/08/03 00:28:51;;;;;;;4.27;2.97;;;16.00;99.90;;;;;;5054432;28;20229;-53
2021/08/03 00:31:20;;;;;;;3.00;2.70;;;16.00;99.90;;;;;;5054929;28;20278;-62
2021/08/03 00:33:48;;;;;;;3.10;2.83;;;16.00;99.90;;;;;;5054710;28;20195;-59
2021/08/03 00:36:15;;;;;;;3.13;2.83;;;16.10;99.90;;;;;;5054818;28;20182;-54
2021/08/03 00:38:41;;;;;;;4.07;3.00;;;16.10;99.90;;;;;;5054699;28;20221;-62
2021/08/03 00:41:20;;;;;;;4.00;2.50;;;16.20;99.90;;;;;;5054260;28;20222;-61
2021/08/03 00:43:46;;;;;;;4.20;2.50;;;16.20;99.90;;;;;;5054863;28;20191;-62
2021/08/03 00:46:11;;;;;;;4.07;2.70;;;16.20;99.90;;;;;;5054241;28;20186;-58
2021/08/03 00:48:37;;;;;;;4.67;2.80;;;16.30;99.90;;;;;;5054582;28;20566;-58
2021/08/03 00:51:02;;;;;;;2.93;2.70;;;16.30;99.90;;;;;;5054611;28;20274;-62
2021/08/03 00:53:30;;;;;;;2.60;2.40;;;16.30;99.90;;;;;;5053870;28;20215;-55
2021/08/03 00:55:58;;;;;;;2.90;2.70;;;16.30;99.90;;;;;;5054245;28;20603;-60
2021/08/03 00:58:24;;;;;;;3.77;2.73;;;16.30;99.90;;;;;;5053880;28;20249;-55
2021/08/03 01:00:49;;;;;;;3.03;2.77;;;16.30;99.90;;;;;;5053992;28;20591;-56
2021/08/03 01:03:15;;;;;;;3.73;3.20;;;16.30;99.90;;;;;;5054474;28;20187;-62
2021/08/03 01:05:45;;;;;;;5.27;3.70;;;16.20;99.90;;;;;;5054357;28;20197;-52
2021/08/03 01:08:30;;;;;;;4.43;4.00;;;16.20;99.90;;;;;;5053694;28;20159;-61
2021/08/03 01:11:24;;;;;;;4.30;3.90;;;16.30;99.90;;;;;;5053597;28;20195;-52
2021/08/03 01:14:12;;;;;;;5.23;4.00;;;16.90;99.90;;;;;;5053184;28;20289;-54
2021/08/03 01:16:46;;;;;;;5.00;4.47;;;16.10;99.90;;;;;;5053486;28;20223;-61
2021/08/03 01:19:35;;;;;;;4.30;3.90;;;16.20;99.90;;;;;;5054098;28;20225;-51
2021/08/03 01:22:45;;;;;;;4.63;4.23;;;16.20;99.90;;;;;;5053666;28;20183;-59
2021/08/03 01:25:36;;;;;;;4.47;4.03;;;16.30;99.90;;;;;;5042698;28;20255;-62
2021/08/03 01:28:29;;;;;;;4.00;3.60;;;16.20;99.90;;;;;;5048044;28;20198;-61
2021/08/03 01:31:06;;;;;;;3.90;3.50;;;16.30;99.90;;;;;;5012401;28;20703;-61
2021/08/03 01:33:36;;;;;;;4.70;3.80;;;16.30;99.90;;;;;;5011673;28;20196;-61
2021/08/03 01:36:03;;;;;;;3.60;3.30;;;16.30;99.90;;;;;;5011281;28;20259;-62
2021/08/03 01:38:30;;;;;;;4.20;3.90;;;16.30;99.90;;;;;;5012147;28;20199;-51
2021/08/03 01:41:01;;;;;;;4.10;3.70;;;16.20;99.90;;;;;;5011470;28;20259;-52
2021/08/03 01:43:28;;;;;;;4.67;3.70;;;16.00;99.90;;;;;;5011425;28;20779;-56
2021/08/03 01:45:55;;;;;;;4.23;3.83;;;16.00;99.90;;;;;;5012085;28;20189;-59
2021/08/03 01:48:23;;;;;;;4.20;3.80;;;16.00;99.90;;;;;;5011887;28;20192;-55
2021/08/03 01:50:52;;;;;;;3.47;3.10;;;16.00;99.90;;;;;;5011582;28;20756;-55
2021/08/03 01:53:20;;;;;;;3.03;2.73;;;16.10;99.90;;;;;;5011042;28;20556;-53
2021/08/03 01:55:46;;;;;;;2.80;2.60;;;16.10;99.90;;;;;;5011558;28;20177;-52
2021/08/03 01:58:14;;;;;;;3.30;3.00;;;16.00;99.90;;;;;;5012023;28;20183;-52
2021/08/03 02:00:43;;;;;;;4.03;3.17;;;16.00;99.90;;;;;;5012131;28;20177;-52
2021/08/03 02:03:10;;;;;;;3.97;3.50;;;16.00;99.90;;;;;;5011740;28;20196;-54
2021/08/03 02:05:38;;;;;;;3.40;3.10;;;16.10;99.90;;;;;;5012048;28;20188;-59
2021/08/03 02:08:06;;;;;;;4.50;3.37;;;16.10;99.90;;;;;;5039141;28;20213;-55
2021/08/03 02:10:32;;;;;;;4.27;3.07;;;16.00;99.90;;;;;;5052908;28;20279;-54
2021/08/03 02:12:57;;;;;;;4.00;3.60;;;16.00;99.90;;;;;;5053329;28;20209;-53
2021/08/03 02:15:23;;;;;;;3.77;3.47;;;15.90;99.90;;;;;;5053082;28;20547;-50
2021/08/03 02:17:48;;;;;;;3.50;3.20;;;15.90;99.90;;;;;;5053639;28;20184;-54
2021/08/03 02:20:14;;;;;;;3.47;3.17;;;15.80;99.90;;;;;;5053220;28;20551;-59
2021/08/03 02:22:40;;;;;;;3.53;3.20;;;15.80;99.90;;;;;;5052978;28;20186;-62
2021/08/03 02:25:09;;;;;;;3.73;3.23;;;15.80;99.90;;;;;;5052998;28;20176;-62
2021/08/03 02:27:36;;;;;;;4.30;3.60;;;15.80;99.90;;;;;;5052851;28;20635;-55
2021/08/03 02:30:01;;;;;;;4.10;3.43;;;15.70;99.90;;;;;;5053425;28;20182;-60
2021/08/03 02:32:34;;;;;;;4.07;3.77;;;15.70;99.90;;;;;;5052796;28;20207;-60
2021/08/03 02:35:12;;;;;;;3.90;3.53;;;15.80;99.90;;;;;;5053021;28;20167;-52
2021/08/03 02:37:39;;;;;;;3.47;3.17;;;15.70;99.90;;;;;;5053017;28;20233;-58
2021/08/03 02:40:08;;;;;;;3.90;3.60;;;15.70;99.90;;;;;;5052970;28;20174;-61
2021/08/03 02:42:36;;;;;;;3.50;3.20;;;15.70;99.90;;;;;;5053017;28;20649;-58
2021/08/03 02:45:03;;;;;;;3.50;3.20;;;15.70;99.90;;;;;;5053291;28;20183;-52
2021/08/03 02:47:40;;;;;;;3.40;3.20;;;15.60;99.90;;;;;;5055475;28;20179;-58
2021/08/03 02:50:07;;;;;;;3.23;3.03;;;15.60;99.90;;;;;;5057341;28;20208;-57
2021/08/03 02:52:41;;;;;;;3.50;3.20;;;15.60;99.90;;;;;;5056422;28;20233;-57
2021/08/03 02:55:39;;;;;;;4.87;3.70;;;15.60;99.90;;;;;;5056468;28;20198;-54
2021/08/03 02:58:10;;;;;;;5.07;4.57;;;15.60;99.90;;;;;;5014753;28;20179;-62
2021/08/03 03:00:37;;;;;;;5.03;4.53;;;15.70;99.90;;;;;;5014646;28;20220;-53
2021/08/03 03:03:17;;;;;;;3.83;3.50;;;15.70;99.90;;;;;;5014335;28;20197;-58
2021/08/03 03:05:47;;;;;;;3.60;3.30;;;15.70;99.90;;;;;;5015031;28;20180;-61
2021/08/03 03:08:16;;;;;;;3.90;3.60;;;15.60;99.90;;;;;;5014720;28;20215;-62
2021/08/03 03:10:47;;;;;;;4.10;3.70;;;15.60;99.90;;;;;;5015365;28;20165;-61
2021/08/03 03:13:26;;;;;;;3.73;3.43;;;15.60;99.90;;;;;;5014145;28;20201;-52
2021/08/03 03:15:52;;;;;;;4.10;3.80;;;15.60;99.90;;;;;;5014313;28;20275;-54
2021/08/03 03:18:20;;;;;;;4.33;3.93;;;15.60;99.90;;;;;;5013974;28;20180;-62
2021/08/03 03:20:47;;;;;;;4.00;3.67;;;15.60;99.90;;;;;;5033858;28;20250;-55
2021/08/03 03:23:16;;;;;;;3.30;3.10;;;15.50;99.90;;;;;;5033496;28;20295;-60
2021/08/03 03:25:43;;;;;;;4.77;3.50;;;15.40;99.90;;;;;;5034036;28;20612;-52
2021/08/03 03:28:11;;;;;;;3.47;3.17;;;15.40;99.90;;;;;;5033867;28;20727;-54
2021/08/03 03:30:37;;;;;;;3.67;3.37;;;15.40;99.90;;;;;;5034220;28;20176;-59
2021/08/03 03:33:05;;;;;;;4.63;3.83;;;15.50;99.90;;;;;;5034071;28;20192;-58
2021/08/03 03:35:33;;;;;;;4.23;3.93;;;15.60;99.90;;;;;;5052015;28;20172;-55
2021/08/03 03:37:59;;;;;;;5.20;4.77;;;15.60;99.90;;;;;;5055686;28;20181;-51
2021/08/03 03:40:26;;;;;;;4.80;4.40;;;15.60;99.90;;;;;;5056133;28;20261;-52
2021/08/03 03:42:55;;;;;;;5.03;4.63;;;15.70;99.90;;;;;;5055035;28;20270;-54
2021/08/03 03:45:21;;;;;;;5.10;4.70;;;15.70;99.90;;;;;;5056821;28;20168;-60
2021/08/03 03:47:53;;;;;;;5.10;4.60;;;15.60;99.90;;;;;;5056258;28;20214;-56
2021/08/03 03:50:26;;;;;;;3.97;3.67;;;15.60;99.90;;;;;;5055953;28;20183;-61
2021/08/03 03:53:03;;;;;;;7.03;3.87;;;15.40;99.90;;;;;;5054832;28;20683;-54
2021/08/03 03:55:30;;;;;;;4.70;3.77;;;15.40;99.90;;;;;;5055953;28;20228;-51
2021/08/03 03:57:56;;;;;;;4.40;3.97;;;15.40;99.90;;;;;;5055637;28;20634;-61
2021/08/03 04:00:22;;;;;;;3.93;3.63;;;15.50;99.90;;;;;;5054688;28;20179;-59
2021/08/03 04:02:50;;;;;;;4.17;3.73;;;15.50;99.90;;;;;;5073392;28;20206;-55
2021/08/03 04:05:16;;;;;;;3.50;3.20;;;15.50;99.90;;;;;;5076205;28;20250;-51
2021/08/03 04:07:49;;;;;;;4.00;3.63;;;15.50;99.90;;;;;;5074556;28;20175;-61
2021/08/03 04:10:17;;;;;;;3.30;3.03;;;15.60;99.90;;;;;;5074405;28;20182;-61
2021/08/03 04:12:43;;;;;;;3.33;3.10;;;15.60;99.90;;;;;;5074782;28;20249;-62
2021/08/03 04:15:09;;;;;;;3.30;3.10;;;15.50;99.90;;;;;;5075050;28;20202;-53
2021/08/03 04:17:35;;;;;;;3.90;3.50;;;15.50;99.90;;;;;;5075563;28;20539;-54
2021/08/03 04:20:02;;;;;;;3.90;3.50;;;15.50;99.90;;;;;;5075582;28;20171;-61
2021/08/03 04:22:28;;;;;;;3.97;3.67;;;15.30;99.90;;;;;;5075377;28;20181;-52
2021/08/03 04:24:54;;;;;;;4.80;4.03;;;15.30;99.90;;;;;;5075372;28;20253;-62
2021/08/03 04:27:20;;;;;;;4.67;4.27;;;15.30;99.90;;;;;;5076262;28;20208;-61
2021/08/03 04:29:45;;;;;;;4.07;3.77;;;15.40;99.90;;;;;;5074943;28;20174;-58
2021/08/03 04:32:11;;;;;;;4.30;3.80;;;15.30;99.90;;;;;;5074312;28;20205;-53
2021/08/03 04:34:36;;;;;;;3.63;3.33;;;15.20;99.90;;;;;;5076578;28;20195;-61
2021/08/03 04:37:02;;;;;;;3.40;3.10;;;15.20;99.90;;;;;;5075425;28;20525;-56
2021/08/03 04:39:28;;;;;;;3.13;2.93;;;15.30;99.90;;;;;;5075003;28;20576;-60
2021/08/03 04:41:55;;;;;;;3.00;2.80;;;15.40;99.90;;;;;;5074020;28;20551;-57
2021/08/03 04:44:20;;;;;;;3.40;3.10;;;15.40;99.90;;;;;;5074946;28;20627;-62
2021/08/03 04:46:46;;;;;;;4.60;3.93;;;15.50;99.90;;;;;;5075523;28;20224;-62
2021/08/03 04:49:11;;;;;;;4.00;3.70;;;15.40;99.90;;;;;;5074520;28;20181;-58
2021/08/03 04:51:37;;;;;;;3.83;3.53;;;15.50;99.90;;;;;;5075488;28;20190;-53
2021/08/03 04:54:03;;;;;;;46.13;5.47;;;15.50;99.90;;;;;;5074879;28;20240;-60
2021/08/03 04:56:29;;;;;;;5.63;4.93;;;15.30;99.90;;;;;;5076009;28;20685;-59
2021/08/03 04:58:55;;;;;;;4.53;4.13;;;15.10;99.90;;;;;;5074705;28;20210;-51
2021/08/03 05:01:20;;;;;;;4.43;3.97;;;15.20;99.90;;;;;;5075062;28;20174;-54
2021/08/03 05:03:46;;;;;;;66.33;6.93;;;15.20;99.90;;;;;;5074585;28;20204;-60
2021/08/03 05:06:11;;;;;;;13.77;4.27;;;15.30;99.90;;;;;;5074726;28;20209;-62
2021/08/03 05:08:37;;;;;;;4.83;4.23;;;15.30;99.90;;;;;;5073615;28;20195;-58
2021/08/03 05:11:03;;;;;;;3.80;3.50;;;15.40;99.90;;;;;;5073690;28;20217;-51
2021/08/03 05:13:28;;;;;;;4.53;4.13;;;15.50;99.90;;;;;;5073497;28;20653;-52
2021/08/03 05:15:54;;;;;;;3.77;3.47;;;15.60;99.90;;;;;;5074543;28;20575;-54
2021/08/03 05:18:19;;;;;;;4.00;3.70;;;15.60;99.90;;;;;;5074365;28;20170;-60
2021/08/03 05:20:45;;;;;;;4.57;4.17;;;15.60;99.90;;;;;;5075120;28;20253;-62
2021/08/03 05:23:10;;;;;;;4.20;3.80;;;15.60;99.90;;;;;;5074106;28;20186;-59
2021/08/03 05:25:36;;;;;;;4.43;3.77;;;15.50;99.90;;;;;;5073820;28;20175;-55
2021/08/03 05:28:01;;;;;;;4.13;3.83;;;15.50;99.90;;;;;;5074528;28;20175;-60
2021/08/03 05:30:27;;;;;;;4.10;3.80;;;15.70;99.90;;;;;;5073547;28;20170;-59
2021/08/03 05:32:53;;;;;;;4.37;4.07;;;15.80;99.90;;;;;;5073422;28;20209;-60
2021/08/03 05:35:19;;;;;;;3.97;3.67;;;15.90;99.90;;;;;;5073923;28;20206;-58
2021/08/03 05:37:44;;;;;;;3.83;3.53;;;15.90;99.90;;;;;;5073603;28;20228;-58
2021/08/03 05:40:12;;;;;;;3.40;3.10;;;16.00;99.90;;;;;;5072472;28;20615;-61
2021/08/03 05:42:38;;;;;;;5.07;4.43;;;16.20;99.90;;;;;;5073687;28;20182;-51
2021/08/03 05:45:04;;;;;;;4.03;3.73;;;16.40;99.90;;;;;;5073166;28;20273;-51
2021/08/03 05:47:30;;;;;;;4.00;3.70;;;16.50;99.90;;;;;;5072642;28;20268;-51
2021/08/03 05:49:56;;;;;;;4.33;4.03;;;16.60;99.90;;;;;;5073579;28;20206;-61
2021/08/03 05:52:21;;;;;;;4.70;3.90;;;16.60;99.90;;;;;;5071731;28;20563;-54
2021/08/03 05:54:47;;;;;;;4.40;3.63;;;16.70;99.90;;;;;;5073371;28;20241;-62
2021/08/03 05:57:12;;;;;;;4.10;3.80;;;16.70;99.90;;;;;;5074056;28;20204;-60
2021/08/03 05:59:38;;;;;;;5.63;5.13;;;16.90;99.90;;;;;;5073622;28;20557;-61
2021/08/03 06:02:07;;;;;;;5.10;4.70;;;17.10;99.90;;;;;;5072998;28;20182;-57
2021/08/03 06:04:32;;;;;;;6.13;3.93;;;17.20;99.90;;;;;;5070816;28;20240;-61
2021/08/03 06:07:02;;;;;;;4.60;4.20;;;17.40;99.90;;;;;;5073232;28;20171;-57
2021/08/03 06:09:27;;;;;;;4.80;4.33;;;17.60;99.90;;;;;;5072722;28;20277;-57
2021/08/03 06:11:55;;;;;;;5.50;5.00;;;17.70;99.90;;;;;;5073523;28;20345;-51
2021/08/03 06:14:37;;;;;;;4.30;3.90;;;17.80;99.90;;;;;;5073042;28;20228;-51
2021/08/03 06:17:07;;;;;;;4.53;3.77;;;17.90;99.90;;;;;;5073371;28;20170;-52
2021/08/03 06:19:40;;;;;;;6.00;5.50;;;17.90;99.90;;;;;;5073176;28;20178;-61
2021/08/03 06:22:07;;;;;;;6.20;5.60;;;17.70;99.90;;;;;;5076222;28;20268;-60
2021/08/03 06:24:33;;;;;;;9.43;6.43;;;17.50;99.90;;;;;;5076502;28;20203;-62
2021/08/03 06:26:59;;;;;;;12.70;7.83;;;17.30;99.90;;;;;;5076233;28;20208;-57
2021/08/03 06:29:28;;;;;;;11.03;7.03;;;17.00;99.90;;;;;;5076839;28;20639;-57
2021/08/03 06:31:55;;;;;;;11.93;7.87;;;17.00;99.90;;;;;;5076692;28;20602;-54
2021/08/03 06:34:21;;;;;;;8.23;7.40;;;17.20;99.90;;;;;;5076164;28;20667;-53
2021/08/03 06:36:46;;;;;;;8.90;8.03;;;17.30;99.90;;;;;;5077255;28;20262;-54
2021/08/03 06:39:12;;;;;;;10.20;9.30;;;17.30;99.90;;;;;;5076610;28;20176;-58
2021/08/03 06:41:41;;;;;;;9.33;8.00;;;17.40;99.90;;;;;;5075894;28;20177;-52
2021/08/03 06:44:12;;;;;;;7.60;6.87;;;17.60;99.90;;;;;;5074952;28;20215;-62
2021/08/03 06:46:43;;;;;;;14.00;8.10;;;17.70;99.90;;;;;;5076377;28;20183;-60
2021/08/03 06:49:10;;;;;;;8.77;7.87;;;17.70;99.90;;;;;;5076467;28;20181;-54
2021/08/03 06:51:38;;;;;;;10.00;8.53;;;17.90;99.90;;;;;;5076612;28;20202;-52
2021/08/03 06:54:06;;;;;;;7.07;6.47;;;17.90;99.90;;;;;;5076609;28;20209;-54
2021/08/03 06:56:38;;;;;;;7.53;6.83;;;18.20;99.90;;;;;;5076452;28;20308;-63
2021/08/03 06:59:07;;;;;;;7.20;6.60;;;18.60;99.90;;;;;;5076469;28;20181;-62
2021/08/03 07:01:47;;;;;;;7.03;6.43;;;18.90;99.90;;;;;;5077729;28;20175;-58
2021/08/03 07:04:20;;;;;;;7.03;6.43;;;18.90;99.90;;;;;;5076755;28;20194;-52
2021/08/03 07:06:49;;;;;;;6.87;6.27;;;19.00;99.90;;;;;;5076497;28;20634;-54
2021/08/03 07:09:15;;;;;;;6.40;5.80;;;19.20;99.90;;;;;;5076193;28;20198;-61
2021/08/03 07:11:41;;;;;;;8.60;6.30;;;19.30;99.90;;;;;;5077111;28;20597;-61
2021/08/03 07:14:07;;;;;;;6.60;6.10;;;19.30;99.90;;;;;;5076125;28;20187;-59
2021/08/03 07:16:33;;;;;;;7.27;6.67;;;19.30;99.90;;;;;;5076268;28;20174;-53
2021/08/03 07:19:01;;;;;;;7.03;6.50;;;19.30;99.90;;;;;;5076169;28;20185;-57
2021/08/03 07:21:27;;;;;;;6.90;6.30;;;19.30;99.90;;;;;;5076088;28;20653;-54
2021/08/03 07:23:55;;;;;;;6.83;6.20;;;19.40;99.90;;;;;;5075892;28;20190;-52
2021/08/03 07:26:21;;;;;;;5.43;5.03;;;19.40;99.90;;;;;;5076045;28;20258;-52
2021/08/03 07:28:47;;;;;;;6.93;6.00;;;19.40;99.90;;;;;;5078041;28;20179;-56
2021/08/03 07:31:12;;;;;;;6.23;5.73;;;19.50;99.90;;;;;;5075592;28;20222;-60
2021/08/03 07:33:39;;;;;;;6.20;5.70;;;19.60;99.90;;;;;;5075080;28;20192;-62
2021/08/03 07:36:05;;;;;;;5.83;5.33;;;19.40;99.90;;;;;;5075917;28;20754;-62
2021/08/03 07:38:31;;;;;;;5.60;5.13;;;19.30;99.90;;;;;;5075643;28;20179;-53
2021/08/03 07:40:56;;;;;;;5.10;4.60;;;19.40;99.90;;;;;;5075940;28;20175;-63
2021/08/03 07:43:22;;;;;;;4.10;3.80;;;19.50;99.90;;;;;;5075422;28;20194;-63
2021/08/03 07:45:47;;;;;;;5.47;4.97;;;20.30;99.90;;;;;;5076375;28;20195;-57
2021/08/03 07:48:13;;;;;;;4.23;3.70;;;20.00;99.90;;;;;;5075503;28;20171;-63
2021/08/03 07:50:39;;;;;;;4.10;3.70;;;20.20;99.90;;;;;;5075257;28;20166;-62
2021/08/03 07:53:05;;;;;;;4.00;3.60;;;20.20;99.90;;;;;;5075136;28;20229;-63
2021/08/03 07:55:31;;;;;;;4.23;3.83;;;20.30;99.90;;;;;;5075261;28;20202;-51
2021/08/03 07:57:56;;;;;;;3.70;3.40;;;20.30;99.90;;;;;;5076637;28;20206;-62
2021/08/03 08:00:22;;;;;;;4.03;3.53;;;20.30;99.90;;;;;;5075357;28;20688;-61
2021/08/03 08:02:47;;;;;;;3.73;3.43;;;20.40;99.90;;;;;;5075181;28;20190;-61
2021/08/03 08:05:13;;;;;;;3.07;2.80;;;20.30;99.90;;;;;;5073891;28;20178;-61
2021/08/03 08:07:39;;;;;;;3.57;2.80;;;20.20;99.90;;;;;;5076905;28;20178;-52
2021/08/03 08:10:05;;;;;;;3.10;2.90;;;20.10;99.90;;;;;;5075364;28;20190;-50
2021/08/03 08:12:31;;;;;;;3.17;2.87;;;20.30;99.90;;;;;;5075175;28;20194;-51
2021/08/03 08:14:56;;;;;;;3.13;2.83;;;20.30;99.90;;;;;;5075956;28;20245;-58
2021/08/03 08:17:22;;;;;;;2.80;2.60;;;20.40;99.90;;;;;;5075482;28;20573;-55
2021/08/03 08:19:47;;;;;;;3.07;2.77;;;20.60;99.90;;;;;;5075565;28;20167;-64
2021/08/03 08:22:13;;;;;;;3.10;2.80;;;20.80;99.90;;;;;;5075207;28;20205;-52
2021/08/03 08:24:38;;;;;;;2.90;2.70;;;20.90;99.90;;;;;;5075376;28;20217;-54
2021/08/03 08:27:04;;;;;;;3.65;3.33;;;21.20;99.90;;;;;;5075413;28;20569;-57
2021/08/03 08:29:29;;;;;;;3.40;3.10;;;21.40;99.90;;;;;;5074266;28;20253;-60
2021/08/03 08:31:55;;;;;;;3.80;3.30;;;21.30;99.90;;;;;;5075021;28;20520;-59
2021/08/03 08:34:20;;;;;;;2.97;2.78;;;21.30;99.90;;;;;;5054646;28;20721;-51
2021/08/03 08:36:46;;;;;;;3.65;2.85;;;21.20;99.90;;;;;;5054770;28;20259;-62
2021/08/03 08:39:12;;;;;;;2.30;2.10;;;21.20;99.90;;;;;;5055054;28;20168;-55
2021/08/03 08:41:38;;;;;;;3.00;2.80;;;21.20;99.90;;;;;;5054598;28;20262;-60
2021/08/03 08:44:04;;;;;;;2.85;2.55;;;21.20;99.90;;;;;;5054645;28;20323;-60
2021/08/03 08:46:34;;;;;;;3.00;2.72;;;21.20;99.90;;;;;;5054823;28;20228;-60
2021/08/03 08:49:01;;;;;;;3.25;2.85;;;21.30;99.90;;;;;;5063952;28;20168;-61
2021/08/03 08:51:28;;;;;;;3.40;3.10;;;21.40;99.90;;;;;;5064083;28;20337;-62
2021/08/03 08:53:53;;;;;;;3.30;3.10;;;21.40;99.90;;;;;;5065030;28;20208;-56
2021/08/03 08:56:19;;;;;;;4.57;3.45;;;21.40;99.90;;;;;;5061732;28;20176;-53
2021/08/03 08:58:44;;;;;;;3.35;2.80;;;21.50;99.90;;;;;;5079690;28;20177;-57
2021/08/03 09:01:11;;;;;;;3.75;2.90;;;21.80;99.90;;;;;;5063393;28;20177;-62
2021/08/03 09:03:36;;;;;;;2.67;2.28;;;21.70;99.90;;;;;;5063628;28;20256;-62
2021/08/03 09:06:05;;;;;;;3.70;2.65;;;21.70;99.90;;;;;;5061696;28;20174;-61
2021/08/03 09:08:54;;;;;;;2.60;2.40;;;22.00;99.90;;;;;;5062189;28;20187;-55
2021/08/03 09:11:21;;;;;;;3.78;2.47;;;22.20;99.90;;;;;;5064117;28;20206;-57
2021/08/03 09:13:53;;;;;;;3.05;2.50;;;22.10;99.90;;;;;;5065300;28;20308;-60
2021/08/03 09:16:19;;;;;;;3.47;2.25;;;22.10;99.90;;;;;;5065784;28;20220;-55
2021/08/03 09:18:45;;;;;;;2.25;2.03;;;22.00;99.90;;;;;;5066389;28;20171;-63
2021/08/03 09:21:28;;;;;;;1.75;1.65;;;22.40;99.90;;;;;;5064547;28;20177;-59
2021/08/03 09:24:01;;;;;;;1.63;1.52;;;22.90;99.90;;;;;;5063811;28;20241;-58
2021/08/03 09:26:46;;;;;;;1.90;1.70;;;23.30;99.90;;;;;;5066885;28;20182;-63
2021/08/03 09:29:14;;;;;;;3.25;2.00;;;23.90;99.90;;;;;;5065098;28;20259;-58
2021/08/03 09:31:49;;;;;;;2.40;2.20;;;24.40;99.90;;;;;;5047094;28;20208;-62
2021/08/03 09:34:16;;;;;;;3.15;1.83;;;24.70;99.90;;;;;;5065153;28;20187;-54
2021/08/03 09:36:54;;;;;;;1.70;1.60;;;24.70;99.90;;;;;;5063239;28;20171;-64
2021/08/03 09:39:47;;;;;;;1.60;1.50;;;24.80;99.90;;;;;;5062927;28;20180;-63
2021/08/03 09:42:18;;;;;;;1.70;1.60;;;25.00;99.90;;;;;;5058410;28;20191;-63
2021/08/03 09:44:52;;;;;;;2.05;1.85;;;24.80;99.90;;;;;;5062332;28;20199;-58
2021/08/03 09:47:19;;;;;;;1.92;1.77;;;24.50;99.90;;;;;;5065252;28;20227;-60
2021/08/03 09:49:48;;;;;;;1.67;1.58;;;24.30;99.90;;;;;;5051795;28;20266;-61
2021/08/03 09:52:17;;;;;;;1.50;1.40;;;24.20;99.90;;;;;;5053349;28;20683;-59
2021/08/03 09:54:43;;;;;;;1.88;1.77;;;24.20;99.90;;;;;;5054465;28;20671;-54
2021/08/03 09:57:24;;;;;;;1.60;1.50;;;24.20;99.90;;;;;;5057719;28;20167;-62
2021/08/03 09:59:51;;;;;;;2.47;1.67;;;24.30;99.90;;;;;;5058179;28;20176;-61
2021/08/03 10:02:28;;;;;;;1.90;1.80;;;24.40;99.90;;;;;;5056784;28;20205;-51
2021/08/03 10:04:55;;;;;;;3.22;1.60;;;24.50;99.90;;;;;;5057753;28;20516;-63
2021/08/03 10:07:21;;;;;;;1.55;1.45;;;24.50;99.90;;;;;;5057980;28;20178;-56
2021/08/03 10:09:48;;;;;;;2.00;1.70;;;24.60;99.90;;;;;;5057225;28;20187;-54
2021/08/03 10:12:14;;;;;;;1.50;1.40;;;24.80;99.90;;;;;;5057421;28;20233;-59
2021/08/03 10:14:40;;;;;;;1.45;1.35;;;24.90;99.90;;;;;;5070038;28;20255;-61
2021/08/03 10:17:08;;;;;;;2.45;2.05;;;25.10;99.90;;;;;;5072326;28;20179;-62
2021/08/03 10:19:36;;;;;;;1.90;1.80;;;25.50;99.90;;;;;;5075113;28;20240;-61
2021/08/03 10:22:16;;;;;;;1.85;1.75;;;25.60;99.90;;;;;;5074713;28;20239;-59
2021/08/03 10:25:10;;;;;;;2.15;1.80;;;25.70;99.90;;;;;;5076419;28;20205;-61
2021/08/03 10:27:47;;;;;;;2.17;1.98;;;25.80;99.90;;;;;;5076889;28;20159;-63
2021/08/03 10:30:28;;;;;;;1.75;1.60;;;25.80;99.90;;;;;;5077363;28;20163;-62
2021/08/03 10:32:55;;;;;;;1.85;1.75;;;25.90;99.90;;;;;;5076684;28;20206;-56
2021/08/03 10:35:39;;;;;;;2.78;1.52;;;26.20;99.90;;;;;;5078227;28;20175;-61
2021/08/03 10:38:07;;;;;;;1.60;1.50;;;26.60;99.90;;;;;;5076499;28;20183;-63
2021/08/03 10:40:48;;;;;;;3.65;1.80;;;27.00;99.90;;;;;;5072738;28;20617;-55
2021/08/03 10:43:19;;;;;;;2.03;1.85;;;26.50;99.90;;;;;;5063042;28;20555;-62
2021/08/03 10:45:46;;;;;;;2.15;1.88;;;26.10;99.90;;;;;;5058635;28;20638;-57
2021/08/03 10:48:37;;;;;;;1.80;1.70;;;26.10;99.90;;;;;;5070573;28;20234;-62
2021/08/03 10:54:04;;;;;;;2.53;1.70;;;26.10;99.90;;;;;;5059095;28;20199;-54
2021/08/03 10:56:58;;;;;;;1.70;1.60;;;26.20;99.90;;;;;;5056720;28;20224;-55
2021/08/03 11:00:00;;;;;;;3.22;1.77;;;26.60;99.90;;;;;;5056294;28;20206;-62
2021/08/03 11:02:34;;;;;;;1.60;1.50;;;26.60;99.90;;;;;;5082717;28;20184;-60
2021/08/03 11:05:00;;;;;;;2.03;1.88;;;26.60;99.90;;;;;;5096728;28;20169;-63
2021/08/03 11:07:34;;;;;;;2.45;1.73;;;26.60;99.90;;;;;;5096269;28;20182;-62
2021/08/03 11:10:01;;;;;;;2.22;1.60;;;26.40;99.90;;;;;;5096386;28;20218;-57
2021/08/03 11:12:38;;;;;;;1.92;1.50;;;26.60;99.90;;;;;;5094791;28;20201;-61
2021/08/03 11:15:22;;;;;;;2.55;1.60;;;26.70;99.90;;;;;;5096798;28;20580;-57
2021/08/03 11:18:02;;;;;;;1.92;1.60;;;26.60;99.90;;;;;;5069347;28;20179;-52
2021/08/03 11:20:34;;;;;;;1.70;1.60;;;26.50;99.90;;;;;;5056095;28;20632;-52
2021/08/03 11:23:01;;;;;;;1.48;1.38;;;26.50;99.90;;;;;;5056431;28;20290;-56
2021/08/03 11:25:28;;;;;;;2.80;1.30;;;26.60;99.90;;;;;;5055954;28;20182;-55
2021/08/03 11:27:54;;;;;;;2.72;1.50;;;26.90;99.90;;;;;;5055801;28;20187;-60
2021/08/03 11:30:20;;;;;;;1.63;1.30;;;27.00;99.90;;;;;;5057463;28;20531;-57
2021/08/03 11:32:50;;;;;;;1.63;1.52;;;26.90;99.90;;;;;;5056446;28;20544;-55
2021/08/03 11:35:29;;;;;;;1.77;1.67;;;27.00;99.90;;;;;;5056300;28;20225;-62
2021/08/03 11:37:54;;;;;;;1.40;1.30;;;26.90;99.90;;;;;;5055983;28;20630;-53
2021/08/03 11:40:20;;;;;;;1.80;1.48;;;27.00;99.90;;;;;;5055486;28;20258;-53
2021/08/03 11:42:47;;;;;;;1.50;1.40;;;27.30;99.90;;;;;;5055564;28;20191;-62
2021/08/03 11:45:17;;;;;;;1.27;1.02;;;27.40;99.90;;;;;;5056231;28;20190;-61
2021/08/03 11:47:46;;;;;;;1.40;1.30;;;27.30;99.90;;;;;;5063652;28;20167;-63
2021/08/03 11:50:18;;;;;;;1.45;1.33;;;27.40;99.90;;;;;;5075455;28;20265;-55
2021/08/03 11:52:43;;;;;;;1.40;1.30;;;27.60;99.90;;;;;;5055155;28;20207;-62
2021/08/03 11:55:14;;;;;;;1.60;1.50;;;27.80;99.90;;;;;;5055591;28;20172;-61
2021/08/03 11:57:41;;;;;;;1.10;1.10;;;28.00;99.90;;;;;;5056426;28;20163;-63
2021/08/03 12:00:10;;;;;;;1.42;1.30;;;28.40;99.90;;;;;;5055654;28;20175;-54
2021/08/03 12:02:37;;;;;;;1.38;1.17;;;28.70;99.90;;;;;;5057786;28;20182;-62
2021/08/03 12:05:07;;;;;;;1.45;1.35;;;29.20;99.90;;;;;;5078254;28;20174;-63
2021/08/03 12:07:33;;;;;;;1.33;1.25;;;29.30;99.90;;;;;;5077185;28;20175;-62
2021/08/03 12:09:58;;;;;;;1.10;1.02;;;29.20;99.90;;;;;;5075402;28;20186;-62
2021/08/03 12:12:24;;;;;;;1.45;1.35;;;28.60;99.90;;;;;;5077059;28;20202;-53
2021/08/03 12:14:59;;;;;;;1.80;1.38;;;28.50;99.90;;;;;;5076440;28;20638;-62
2021/08/03 12:17:26;;;;;;;1.27;1.17;;;28.60;99.90;;;;;;5075139;28;20205;-58
2021/08/03 12:19:52;;;;;;;1.58;1.15;;;28.90;99.90;;;;;;5075347;28;20170;-62
2021/08/03 12:22:25;;;;;;;1.33;1.20;;;29.10;99.90;;;;;;5075077;28;20175;-57
2021/08/03 12:25:02;;;;;;;1.40;1.30;;;28.50;99.90;;;;;;5075716;28;20174;-62
2021/08/03 12:27:38;;;;;;;1.23;1.13;;;28.30;99.90;;;;;;5075499;28;20177;-50
2021/08/03 12:30:06;;;;;;;2.97;1.20;;;28.40;99.90;;;;;;5076234;28;20198;-55
2021/08/03 12:32:37;;;;;;;1.45;1.20;;;28.60;99.90;;;;;;5075062;28;20193;-52
2021/08/03 12:35:13;;;;;;;1.92;1.45;;;28.90;99.90;;;;;;5074841;28;20572;-58
2021/08/03 12:37:41;;;;;;;1.30;1.20;;;28.60;99.90;;;;;;5074837;28;20162;-62
2021/08/03 12:40:36;;;;;;;1.40;1.30;;;28.40;99.70;;;;;;5075736;28;20167;-63
2021/08/03 12:43:03;;;;;;;1.20;1.10;;;28.20;99.90;;;;;;4993162;28;20542;-53
2021/08/03 12:45:29;;;;;;;1.30;1.20;;;28.30;98.90;;;;;;4993028;28;20322;-56
2021/08/03 12:48:02;;;;;;;1.10;1.10;;;28.50;99.90;;;;;;5003963;28;20264;-57
2021/08/03 12:50:29;;;;;;;1.00;1.00;;;28.30;99.80;;;;;;5012631;28;20165;-57
2021/08/03 12:52:57;;;;;;;1.63;1.23;;;28.20;99.90;;;;;;5012853;28;20219;-56
2021/08/03 12:55:31;;;;;;;1.27;1.00;;;28.70;99.90;;;;;;5014959;28;20200;-63
2021/08/03 12:57:58;;;;;;;1.08;1.08;;;29.30;99.90;;;;;;5013558;28;20261;-51
2021/08/03 13:00:37;;;;;;;1.17;1.00;;;29.10;99.90;;;;;;4997714;28;20642;-56